sensor_id;sensor_type;location;lat;lon;timestamp;temperature;humidity
4187;DHT22;2107;52.306;10.484;2023-03-01T00:00:52;-4.10;99.90
4187;DHT22;2107;52.306;10.484;2023-03-01T00:03:19;-4.10;99.90
4187;DHT22;2107;52.306;10.484;2023-03-01T00:05:47;-4.10;99.90
4187;DHT22;2107;52.306;10.484;2023-03-01T00:08:14;-4.10;99.90
4187;DHT22;2107;52.306;10.484;2023-03-01T00:10:41;-4.20;99.90
4187;DHT22;2107;52.306;10.484;2023-03-01T00:13:07;-4.20;99.90
4187;DHT22;2107;52.306;10.484;2023-03-01T00:15:38;-4.10;99.90
4187;DHT22;2107;52.306;10.484;2023-03-01T00:18:05;-4.20;99.90
4187;DHT22;2107;52.306;10.484;2023-03-01T00:20:32;-4.10;99.90
4187;DHT22;2107;52.306;10.484;2023-03-01T00:23:00;-4.10;99.90
4187;DHT22;2107;52.306;10.484;2023-03-01T00:25:27;-4.20;99.90
4187;DHT22;2107;52.306;10.484;2023-03-01T00:27:54;-4.40;99.90
4187;DHT22;2107;52.306;10.484;2023-03-01T00:30:20;-4.50;99.90
4187;DHT22;2107;52.306;10.484;2023-03-01T00:32:47;-4.50;99.90
4187;DHT22;2107;52.306;10.484;2023-03-01T00:35:14;-4.50;99.90
4187;DHT22;2107;52.306;10.484;2023-03-01T00:37:41;-4.50;99.90
4187;DHT22;2107;52.306;10.484;2023-03-01T00:40:11;-4.40;99.90
4187;DHT22;2107;52.306;10.484;2023-03-01T00:42:37;-4.40;99.90
4187;DHT22;2107;52.306;10.484;2023-03-01T00:45:06;-4.50;99.90
4187;DHT22;2107;52.306;10.484;2023-03-01T00:47:33;-4.60;99.90
4187;DHT22;2107;52.306;10.484;2023-03-01T00:50:00;-4.60;99.90
4187;DHT22;2107;52.306;10.484;2023-03-01T00:52:27;-4.70;99.90
4187;DHT22;2107;52.306;10.484;2023-03-01T00:54:54;-4.70;99.90
4187;DHT22;2107;52.306;10.484;2023-03-01T00:57:22;-4.80;99.90
4187;DHT22;2107;52.306;10.484;2023-03-01T00:59:49;-4.80;99.90
4187;DHT22;2107;52.306;10.484;2023-03-01T01:02:18;-4.80;99.90
4187;DHT22;2107;52.306;10.484;2023-03-01T01:04:44;-4.90;99.90
4187;DHT22;2107;52.306;10.484;2023-03-01T01:07:11;-4.90;99.90
4187;DHT22;2107;52.306;10.484;2023-03-01T01:09:38;-4.80;99.90
4187;DHT22;2107;52.306;10.484;2023-03-01T01:12:06;-4.70;99.90
4187;DHT22;2107;52.306;10.484;2023-03-01T01:14:34;-4.80;99.90
4187;DHT22;2107;52.306;10.484;2023-03-01T01:17:01;-4.90;99.90
4187;DHT22;2107;52.306;10.484;2023-03-01T01:19:28;-5.00;99.90
4187;DHT22;2107;52.306;10.484;2023-03-01T01:21:55;-5.10;99.90
4187;DHT22;2107;52.306;10.484;2023-03-01T01:24:22;-5.10;99.90
4187;DHT22;2107;52.306;10.484;2023-03-01T01:26:49;-5.10;99.90
4187;DHT22;2107;52.306;10.484;2023-03-01T01:29:16;-5.10;99.90
4187;DHT22;2107;52.306;10.484;2023-03-01T01:31:44;-5.10;99.90
4187;DHT22;2107;52.306;10.484;2023-03-01T01:34:14;-5.20;99.90
4187;DHT22;2107;52.306;10.484;2023-03-01T01:36:41;-5.10;99.90
4187;DHT22;2107;52.306;10.484;2023-03-01T01:39:09;-5.00;99.90
4187;DHT22;2107;52.306;10.484;2023-03-01T01:41:39;-5.10;99.90
4187;DHT22;2107;52.306;10.484;2023-03-01T01:44:13;-5.10;99.90
4187;DHT22;2107;52.306;10.484;2023-03-01T01:46:41;-5.00;99.90
4187;DHT22;2107;52.306;10.484;2023-03-01T01:49:17;-5.00;99.90
4187;DHT22;2107;52.306;10.484;2023-03-01T01:51:47;-5.00;99.90
4187;DHT22;2107;52.306;10.484;2023-03-01T01:54:17;-5.00;99.90
4187;DHT22;2107;52.306;10.484;2023-03-01T01:56:49;-5.10;99.90
4187;DHT22;2107;52.306;10.484;2023-03-01T01:59:17;-5.10;99.90
4187;DHT22;2107;52.306;10.484;2023-03-01T02:01:44;-5.20;99.90
4187;DHT22;2107;52.306;10.484;2023-03-01T02:04:12;-5.20;99.90
4187;DHT22;2107;52.306;10.484;2023-03-01T02:06:43;-5.10;99.90
4187;DHT22;2107;52.306;10.484;2023-03-01T02:09:13;-5.10;99.90
4187;DHT22;2107;52.306;10.484;2023-03-01T02:11:41;-5.10;99.90
4187;DHT22;2107;52.306;10.484;2023-03-01T02:14:09;-5.10;99.90
4187;DHT22;2107;52.306;10.484;2023-03-01T02:16:36;-5.10;99.90
4187;DHT22;2107;52.306;10.484;2023-03-01T02:19:04;-5.20;99.90
4187;DHT22;2107;52.306;10.484;2023-03-01T02:21:42;-5.30;99.90
4187;DHT22;2107;52.306;10.484;2023-03-01T02:24:27;-5.20;99.90
4187;DHT22;2107;52.306;10.484;2023-03-01T02:26:58;-5.20;99.90
4187;DHT22;2107;52.306;10.484;2023-03-01T02:29:28;-5.20;99.90
4187;DHT22;2107;52.306;10.484;2023-03-01T02:31:58;-5.20;99.90
4187;DHT22;2107;52.306;10.484;2023-03-01T02:34:25;-5.30;99.90
4187;DHT22;2107;52.306;10.484;2023-03-01T02:36:57;-5.30;99.90
4187;DHT22;2107;52.306;10.484;2023-03-01T02:39:30;-5.30;99.90
4187;DHT22;2107;52.306;10.484;2023-03-01T02:41:58;-5.20;99.90
4187;DHT22;2107;52.306;10.484;2023-03-01T02:44:25;-5.10;99.90
4187;DHT22;2107;52.306;10.484;2023-03-01T02:46:55;-5.10;99.90
4187;DHT22;2107;52.306;10.484;2023-03-01T02:49:25;-5.10;99.90
4187;DHT22;2107;52.306;10.484;2023-03-01T02:52:13;-5.20;99.90
4187;DHT22;2107;52.306;10.484;2023-03-01T02:54:48;-5.40;99.90
4187;DHT22;2107;52.306;10.484;2023-03-01T02:57:17;-5.40;99.90
4187;DHT22;2107;52.306;10.484;2023-03-01T02:59:44;-5.30;99.90
4187;DHT22;2107;52.306;10.484;2023-03-01T03:02:21;-5.30;99.90
4187;DHT22;2107;52.306;10.484;2023-03-01T03:05:03;-5.30;99.90
4187;DHT22;2107;52.306;10.484;2023-03-01T03:07:32;-5.30;99.90
4187;DHT22;2107;52.306;10.484;2023-03-01T03:09:59;-5.30;99.90
4187;DHT22;2107;52.306;10.484;2023-03-01T03:12:26;-5.30;99.90
4187;DHT22;2107;52.306;10.484;2023-03-01T03:14:52;-5.40;99.90
4187;DHT22;2107;52.306;10.484;2023-03-01T03:17:21;-5.50;99.90
4187;DHT22;2107;52.306;10.484;2023-03-01T03:19:47;-5.60;99.90
4187;DHT22;2107;52.306;10.484;2023-03-01T03:22:14;-5.70;99.90
4187;DHT22;2107;52.306;10.484;2023-03-01T03:24:41;-5.60;99.90
4187;DHT22;2107;52.306;10.484;2023-03-01T03:27:08;-5.70;99.90
4187;DHT22;2107;52.306;10.484;2023-03-01T03:29:35;-5.90;99.90
4187;DHT22;2107;52.306;10.484;2023-03-01T03:32:02;-5.90;99.90
4187;DHT22;2107;52.306;10.484;2023-03-01T03:34:31;-5.90;99.90
4187;DHT22;2107;52.306;10.484;2023-03-01T03:36:57;-6.20;99.90
4187;DHT22;2107;52.306;10.484;2023-03-01T03:39:25;-6.00;99.90
4187;DHT22;2107;52.306;10.484;2023-03-01T03:41:53;-6.10;99.90
4187;DHT22;2107;52.306;10.484;2023-03-01T03:44:19;-6.10;99.90
4187;DHT22;2107;52.306;10.484;2023-03-01T03:46:46;-6.10;99.90
4187;DHT22;2107;52.306;10.484;2023-03-01T03:49:13;-5.80;99.90
4187;DHT22;2107;52.306;10.484;2023-03-01T03:51:41;-5.50;99.90
4187;DHT22;2107;52.306;10.484;2023-03-01T03:54:08;-5.40;99.90
4187;DHT22;2107;52.306;10.484;2023-03-01T03:56:36;-5.60;99.90
4187;DHT22;2107;52.306;10.484;2023-03-01T03:59:03;-5.80;99.90
4187;DHT22;2107;52.306;10.484;2023-03-01T04:01:31;-6.00;99.90
4187;DHT22;2107;52.306;10.484;2023-03-01T04:03:58;-6.00;99.90
4187;DHT22;2107;52.306;10.484;2023-03-01T04:06:29;-6.00;99.90
4187;DHT22;2107;52.306;10.484;2023-03-01T04:08:57;-6.00;99.90
4187;DHT22;2107;52.306;10.484;2023-03-01T04:11:26;-6.10;99.90
4187;DHT22;2107;52.306;10.484;2023-03-01T04:13:55;-6.10;99.90
4187;DHT22;2107;52.306;10.484;2023-03-01T04:16:23;-6.10;99.90
4187;DHT22;2107;52.306;10.484;2023-03-01T04:18:50;-6.00;99.90
4187;DHT22;2107;52.306;10.484;2023-03-01T04:21:17;-6.10;99.90
4187;DHT22;2107;52.306;10.484;2023-03-01T04:23:45;-6.00;99.90
4187;DHT22;2107;52.306;10.484;2023-03-01T04:26:14;-6.10;99.90
4187;DHT22;2107;52.306;10.484;2023-03-01T04:28:42;-6.10;99.90
4187;DHT22;2107;52.306;10.484;2023-03-01T04:31:12;-6.10;99.90
4187;DHT22;2107;52.306;10.484;2023-03-01T04:33:42;-6.20;99.90
4187;DHT22;2107;52.306;10.484;2023-03-01T04:36:09;-6.20;99.90
4187;DHT22;2107;52.306;10.484;2023-03-01T04:38:37;-6.10;99.90
4187;DHT22;2107;52.306;10.484;2023-03-01T04:41:05;-6.00;99.90
4187;DHT22;2107;52.306;10.484;2023-03-01T04:43:33;-5.80;99.90
4187;DHT22;2107;52.306;10.484;2023-03-01T04:46:01;-5.80;99.90
4187;DHT22;2107;52.306;10.484;2023-03-01T04:48:29;-5.80;99.90
4187;DHT22;2107;52.306;10.484;2023-03-01T04:50:57;-5.90;99.90
4187;DHT22;2107;52.306;10.484;2023-03-01T04:53:24;-6.00;99.90
4187;DHT22;2107;52.306;10.484;2023-03-01T04:55:51;-6.00;99.90
4187;DHT22;2107;52.306;10.484;2023-03-01T04:58:18;-6.00;99.90
4187;DHT22;2107;52.306;10.484;2023-03-01T05:00:46;-6.00;99.90
4187;DHT22;2107;52.306;10.484;2023-03-01T05:03:13;-6.10;99.90
4187;DHT22;2107;52.306;10.484;2023-03-01T05:05:44;-6.10;99.90
4187;DHT22;2107;52.306;10.484;2023-03-01T05:08:11;-6.00;99.90
4187;DHT22;2107;52.306;10.484;2023-03-01T05:10:44;-6.10;99.90
4187;DHT22;2107;52.306;10.484;2023-03-01T05:13:11;-6.10;99.90
4187;DHT22;2107;52.306;10.484;2023-03-01T05:15:39;-6.20;99.90
4187;DHT22;2107;52.306;10.484;2023-03-01T05:18:07;-6.30;99.90
4187;DHT22;2107;52.306;10.484;2023-03-01T05:20:37;-6.30;99.90
4187;DHT22;2107;52.306;10.484;2023-03-01T05:23:04;-6.30;99.90
4187;DHT22;2107;52.306;10.484;2023-03-01T05:25:32;-6.20;99.90
4187;DHT22;2107;52.306;10.484;2023-03-01T05:28:00;-6.10;99.90
4187;DHT22;2107;52.306;10.484;2023-03-01T05:30:30;-6.20;99.90
4187;DHT22;2107;52.306;10.484;2023-03-01T05:32:58;-6.30;99.90
4187;DHT22;2107;52.306;10.484;2023-03-01T05:35:26;-6.30;99.90
4187;DHT22;2107;52.306;10.484;2023-03-01T05:37:53;-6.30;99.90
4187;DHT22;2107;52.306;10.484;2023-03-01T05:40:21;-6.40;99.90
4187;DHT22;2107;52.306;10.484;2023-03-01T05:42:51;-6.60;99.90
4187;DHT22;2107;52.306;10.484;2023-03-01T05:45:18;-6.60;99.90
4187;DHT22;2107;52.306;10.484;2023-03-01T05:47:46;-6.50;99.90
4187;DHT22;2107;52.306;10.484;2023-03-01T05:50:15;-6.50;99.90
4187;DHT22;2107;52.306;10.484;2023-03-01T05:52:46;-6.60;99.90
4187;DHT22;2107;52.306;10.484;2023-03-01T05:55:14;-6.50;99.90
4187;DHT22;2107;52.306;10.484;2023-03-01T05:57:41;-6.50;99.90
4187;DHT22;2107;52.306;10.484;2023-03-01T06:00:09;-6.50;99.90
4187;DHT22;2107;52.306;10.484;2023-03-01T06:02:36;-6.60;99.90
4187;DHT22;2107;52.306;10.484;2023-03-01T06:05:04;-6.60;99.90
4187;DHT22;2107;52.306;10.484;2023-03-01T06:07:31;-6.50;99.90
4187;DHT22;2107;52.306;10.484;2023-03-01T06:09:59;-6.30;99.90
4187;DHT22;2107;52.306;10.484;2023-03-01T06:12:30;-6.30;99.90
4187;DHT22;2107;52.306;10.484;2023-03-01T06:14:57;-6.40;99.90
4187;DHT22;2107;52.306;10.484;2023-03-01T06:17:24;-6.40;99.90
4187;DHT22;2107;52.306;10.484;2023-03-01T06:19:50;-6.40;99.90
4187;DHT22;2107;52.306;10.484;2023-03-01T06:22:17;-6.30;99.90
4187;DHT22;2107;52.306;10.484;2023-03-01T06:24:44;-6.40;99.90
4187;DHT22;2107;52.306;10.484;2023-03-01T06:27:12;-6.30;99.90
4187;DHT22;2107;52.306;10.484;2023-03-01T06:29:39;-6.10;99.90
4187;DHT22;2107;52.306;10.484;2023-03-01T06:32:06;-5.80;99.90
4187;DHT22;2107;52.306;10.484;2023-03-01T06:34:33;-5.60;99.90
4187;DHT22;2107;52.306;10.484;2023-03-01T06:37:00;-5.40;99.90
4187;DHT22;2107;52.306;10.484;2023-03-01T06:39:28;-5.00;99.90
4187;DHT22;2107;52.306;10.484;2023-03-01T06:41:57;-4.80;99.90
4187;DHT22;2107;52.306;10.484;2023-03-01T06:44:25;-4.60;99.90
4187;DHT22;2107;52.306;10.484;2023-03-01T06:46:52;-4.40;99.90
4187;DHT22;2107;52.306;10.484;2023-03-01T06:49:19;-4.10;99.90
4187;DHT22;2107;52.306;10.484;2023-03-01T06:51:46;-3.90;99.90
4187;DHT22;2107;52.306;10.484;2023-03-01T06:54:13;-3.60;99.90
4187;DHT22;2107;52.306;10.484;2023-03-01T06:56:40;-3.40;99.90
4187;DHT22;2107;52.306;10.484;2023-03-01T06:59:07;-3.10;99.90
4187;DHT22;2107;52.306;10.484;2023-03-01T07:01:35;-3.00;99.90
4187;DHT22;2107;52.306;10.484;2023-03-01T07:04:02;-2.90;99.90
4187;DHT22;2107;52.306;10.484;2023-03-01T07:06:29;-2.60;99.90
4187;DHT22;2107;52.306;10.484;2023-03-01T07:08:56;-2.40;99.90
4187;DHT22;2107;52.306;10.484;2023-03-01T07:11:23;-2.20;99.90
4187;DHT22;2107;52.306;10.484;2023-03-01T07:13:50;-2.00;99.90
4187;DHT22;2107;52.306;10.484;2023-03-01T07:16:16;-1.90;99.90
4187;DHT22;2107;52.306;10.484;2023-03-01T07:18:47;-1.70;99.90
4187;DHT22;2107;52.306;10.484;2023-03-01T07:21:14;-2.00;99.90
4187;DHT22;2107;52.306;10.484;2023-03-01T07:23:42;-2.00;99.90
4187;DHT22;2107;52.306;10.484;2023-03-01T07:26:09;-2.00;99.90
4187;DHT22;2107;52.306;10.484;2023-03-01T07:28:35;-1.90;99.90
4187;DHT22;2107;52.306;10.484;2023-03-01T07:31:05;-1.50;99.90
4187;DHT22;2107;52.306;10.484;2023-03-01T07:33:32;-1.60;99.90
4187;DHT22;2107;52.306;10.484;2023-03-01T07:36:04;-1.60;99.90
4187;DHT22;2107;52.306;10.484;2023-03-01T07:38:31;-1.40;99.90
4187;DHT22;2107;52.306;10.484;2023-03-01T07:40:59;-1.10;99.90
4187;DHT22;2107;52.306;10.484;2023-03-01T07:43:26;-0.80;99.90
4187;DHT22;2107;52.306;10.484;2023-03-01T07:45:53;-0.40;99.90
4187;DHT22;2107;52.306;10.484;2023-03-01T07:48:20;0.10;99.90
4187;DHT22;2107;52.306;10.484;2023-03-01T07:50:47;0.60;99.90
4187;DHT22;2107;52.306;10.484;2023-03-01T07:53:15;1.10;99.90
4187;DHT22;2107;52.306;10.484;2023-03-01T07:55:42;1.50;99.90
4187;DHT22;2107;52.306;10.484;2023-03-01T07:58:09;1.90;99.90
4187;DHT22;2107;52.306;10.484;2023-03-01T08:00:36;1.90;99.90
4187;DHT22;2107;52.306;10.484;2023-03-01T08:03:03;2.10;99.90
4187;DHT22;2107;52.306;10.484;2023-03-01T08:05:29;2.40;99.90
4187;DHT22;2107;52.306;10.484;2023-03-01T08:07:56;2.80;99.90
4187;DHT22;2107;52.306;10.484;2023-03-01T08:10:24;3.20;99.90
4187;DHT22;2107;52.306;10.484;2023-03-01T08:12:52;3.40;99.90
4187;DHT22;2107;52.306;10.484;2023-03-01T08:15:19;3.70;99.90
4187;DHT22;2107;52.306;10.484;2023-03-01T08:17:48;4.00;99.90
4187;DHT22;2107;52.306;10.484;2023-03-01T08:20:16;4.30;99.90
4187;DHT22;2107;52.306;10.484;2023-03-01T08:22:43;4.10;99.90
4187;DHT22;2107;52.306;10.484;2023-03-01T08:25:10;4.40;99.90
4187;DHT22;2107;52.306;10.484;2023-03-01T08:27:38;4.50;99.90
4187;DHT22;2107;52.306;10.484;2023-03-01T08:30:06;4.70;99.90
4187;DHT22;2107;52.306;10.484;2023-03-01T08:32:36;4.60;99.90
4187;DHT22;2107;52.306;10.484;2023-03-01T08:35:04;3.50;99.90
4187;DHT22;2107;52.306;10.484;2023-03-01T08:37:32;4.30;99.90
4187;DHT22;2107;52.306;10.484;2023-03-01T08:39:58;4.70;99.90
4187;DHT22;2107;52.306;10.484;2023-03-01T08:42:25;4.20;99.90
4187;DHT22;2107;52.306;10.484;2023-03-01T08:44:54;4.70;99.90
4187;DHT22;2107;52.306;10.484;2023-03-01T08:47:22;4.90;99.90
4187;DHT22;2107;52.306;10.484;2023-03-01T08:49:49;5.50;99.90
4187;DHT22;2107;52.306;10.484;2023-03-01T08:52:16;6.10;99.90
4187;DHT22;2107;52.306;10.484;2023-03-01T08:54:43;6.40;99.90
4187;DHT22;2107;52.306;10.484;2023-03-01T08:57:10;6.30;99.90
4187;DHT22;2107;52.306;10.484;2023-03-01T08:59:38;6.60;99.90
4187;DHT22;2107;52.306;10.484;2023-03-01T09:02:12;6.30;99.90
4187;DHT22;2107;52.306;10.484;2023-03-01T09:04:39;6.10;99.90
4187;DHT22;2107;52.306;10.484;2023-03-01T09:07:07;6.70;99.90
4187;DHT22;2107;52.306;10.484;2023-03-01T09:09:34;6.40;99.90
4187;DHT22;2107;52.306;10.484;2023-03-01T09:12:02;7.10;99.90
4187;DHT22;2107;52.306;10.484;2023-03-01T09:14:29;7.60;99.90
4187;DHT22;2107;52.306;10.484;2023-03-01T09:16:56;7.90;99.70
4187;DHT22;2107;52.306;10.484;2023-03-01T09:19:24;8.40;99.90
4187;DHT22;2107;52.306;10.484;2023-03-01T09:21:51;8.70;97.00
4187;DHT22;2107;52.306;10.484;2023-03-01T09:24:23;8.00;95.50
4187;DHT22;2107;52.306;10.484;2023-03-01T09:26:51;8.20;94.20
4187;DHT22;2107;52.306;10.484;2023-03-01T09:29:19;8.20;94.30
4187;DHT22;2107;52.306;10.484;2023-03-01T09:31:45;8.60;94.00
4187;DHT22;2107;52.306;10.484;2023-03-01T09:34:12;8.90;92.80
4187;DHT22;2107;52.306;10.484;2023-03-01T09:36:42;9.30;93.30
4187;DHT22;2107;52.306;10.484;2023-03-01T09:39:09;8.70;92.30
4187;DHT22;2107;52.306;10.484;2023-03-01T09:41:43;8.90;91.60
4187;DHT22;2107;52.306;10.484;2023-03-01T09:44:18;9.10;90.70
4187;DHT22;2107;52.306;10.484;2023-03-01T09:46:47;9.10;89.10
4187;DHT22;2107;52.306;10.484;2023-03-01T09:49:18;9.10;86.70
4187;DHT22;2107;52.306;10.484;2023-03-01T09:51:55;8.50;86.30
4187;DHT22;2107;52.306;10.484;2023-03-01T09:54:23;8.90;89.10
4187;DHT22;2107;52.306;10.484;2023-03-01T09:57:09;9.30;87.10
4187;DHT22;2107;52.306;10.484;2023-03-01T09:59:50;9.50;85.50
4187;DHT22;2107;52.306;10.484;2023-03-01T10:02:26;9.80;83.50
4187;DHT22;2107;52.306;10.484;2023-03-01T10:04:58;10.20;82.30
4187;DHT22;2107;52.306;10.484;2023-03-01T10:07:34;10.40;81.50
4187;DHT22;2107;52.306;10.484;2023-03-01T10:10:05;10.40;76.00
4187;DHT22;2107;52.306;10.484;2023-03-01T10:12:35;9.20;76.40
4187;DHT22;2107;52.306;10.484;2023-03-01T10:15:05;9.40;78.70
4187;DHT22;2107;52.306;10.484;2023-03-01T10:17:39;9.40;77.20
4187;DHT22;2107;52.306;10.484;2023-03-01T10:20:18;9.30;76.10
4187;DHT22;2107;52.306;10.484;2023-03-01T10:22:47;9.20;77.70
4187;DHT22;2107;52.306;10.484;2023-03-01T10:25:20;9.10;76.20
4187;DHT22;2107;52.306;10.484;2023-03-01T10:27:52;9.30;75.20
4187;DHT22;2107;52.306;10.484;2023-03-01T10:30:22;8.90;76.40
4187;DHT22;2107;52.306;10.484;2023-03-01T10:32:56;8.70;75.60
4187;DHT22;2107;52.306;10.484;2023-03-01T10:35:25;8.90;76.10
4187;DHT22;2107;52.306;10.484;2023-03-01T10:38:03;9.00;76.30
4187;DHT22;2107;52.306;10.484;2023-03-01T10:40:30;9.10;74.40
4187;DHT22;2107;52.306;10.484;2023-03-01T10:42:58;8.40;72.90
4187;DHT22;2107;52.306;10.484;2023-03-01T10:45:34;8.50;74.70
4187;DHT22;2107;52.306;10.484;2023-03-01T10:48:20;8.80;75.00
4187;DHT22;2107;52.306;10.484;2023-03-01T10:51:03;8.90;73.50
4187;DHT22;2107;52.306;10.484;2023-03-01T10:53:34;9.20;73.40
4187;DHT22;2107;52.306;10.484;2023-03-01T10:56:04;7.60;70.70
4187;DHT22;2107;52.306;10.484;2023-03-01T10:58:33;7.80;75.10
4187;DHT22;2107;52.306;10.484;2023-03-01T11:01:02;8.00;76.30
4187;DHT22;2107;52.306;10.484;2023-03-01T11:03:31;8.30;76.50
4187;DHT22;2107;52.306;10.484;2023-03-01T11:06:01;8.70;74.70
4187;DHT22;2107;52.306;10.484;2023-03-01T11:08:42;9.30;73.50
4187;DHT22;2107;52.306;10.484;2023-03-01T11:11:22;9.70;72.50
4187;DHT22;2107;52.306;10.484;2023-03-01T11:13:53;9.60;71.60
4187;DHT22;2107;52.306;10.484;2023-03-01T11:16:41;9.30;69.70
4187;DHT22;2107;52.306;10.484;2023-03-01T11:19:20;9.00;72.60
4187;DHT22;2107;52.306;10.484;2023-03-01T11:21:55;9.70;72.60
4187;DHT22;2107;52.306;10.484;2023-03-01T11:24:29;9.20;72.60
4187;DHT22;2107;52.306;10.484;2023-03-01T11:27:01;9.60;70.30
4187;DHT22;2107;52.306;10.484;2023-03-01T11:29:32;9.80;71.90
4187;DHT22;2107;52.306;10.484;2023-03-01T11:32:04;10.00;68.30
4187;DHT22;2107;52.306;10.484;2023-03-01T11:34:42;10.30;68.30
4187;DHT22;2107;52.306;10.484;2023-03-01T11:37:19;10.00;67.10
4187;DHT22;2107;52.306;10.484;2023-03-01T11:39:58;10.40;67.40
4187;DHT22;2107;52.306;10.484;2023-03-01T11:42:37;10.30;64.90
4187;DHT22;2107;52.306;10.484;2023-03-01T11:45:08;10.30;64.90
4187;DHT22;2107;52.306;10.484;2023-03-01T11:47:51;10.80;66.20
4187;DHT22;2107;52.306;10.484;2023-03-01T11:50:29;10.30;63.40
4187;DHT22;2107;52.306;10.484;2023-03-01T11:53:04;9.60;65.30
4187;DHT22;2107;52.306;10.484;2023-03-01T11:55:49;9.80;66.10
4187;DHT22;2107;52.306;10.484;2023-03-01T11:58:31;10.00;64.70
4187;DHT22;2107;52.306;10.484;2023-03-01T12:01:12;10.20;62.90
4187;DHT22;2107;52.306;10.484;2023-03-01T12:06:52;9.70;66.30
4187;DHT22;2107;52.306;10.484;2023-03-01T12:09:38;9.50;65.40
4187;DHT22;2107;52.306;10.484;2023-03-01T12:12:26;9.60;64.80
4187;DHT22;2107;52.306;10.484;2023-03-01T12:15:17;10.10;63.40
4187;DHT22;2107;52.306;10.484;2023-03-01T12:20:55;9.50;63.10
4187;DHT22;2107;52.306;10.484;2023-03-01T12:23:36;9.60;65.60
4187;DHT22;2107;52.306;10.484;2023-03-01T12:26:15;9.90;64.10
4187;DHT22;2107;52.306;10.484;2023-03-01T12:29:20;9.10;65.10
4187;DHT22;2107;52.306;10.484;2023-03-01T12:32:22;9.30;65.00
4187;DHT22;2107;52.306;10.484;2023-03-01T12:35:20;9.40;63.30
4187;DHT22;2107;52.306;10.484;2023-03-01T12:37:56;9.90;65.10
4187;DHT22;2107;52.306;10.484;2023-03-01T12:40:43;10.00;61.70
4187;DHT22;2107;52.306;10.484;2023-03-01T12:43:29;10.00;62.30
4187;DHT22;2107;52.306;10.484;2023-03-01T12:46:15;10.20;62.40
4187;DHT22;2107;52.306;10.484;2023-03-01T12:48:53;10.20;62.20
4187;DHT22;2107;52.306;10.484;2023-03-01T12:51:23;10.50;62.60
4187;DHT22;2107;52.306;10.484;2023-03-01T12:53:52;10.40;61.60
4187;DHT22;2107;52.306;10.484;2023-03-01T12:56:22;10.20;61.50
4187;DHT22;2107;52.306;10.484;2023-03-01T12:58:57;9.80;62.00
4187;DHT22;2107;52.306;10.484;2023-03-01T13:01:35;9.10;62.70
4187;DHT22;2107;52.306;10.484;2023-03-01T13:04:14;9.20;65.20
4187;DHT22;2107;52.306;10.484;2023-03-01T13:06:50;9.30;65.60
4187;DHT22;2107;52.306;10.484;2023-03-01T13:09:29;9.80;64.40
4187;DHT22;2107;52.306;10.484;2023-03-01T13:11:58;10.00;63.00
4187;DHT22;2107;52.306;10.484;2023-03-01T13:14:36;9.30;63.70
4187;DHT22;2107;52.306;10.484;2023-03-01T13:17:32;9.70;65.10
4187;DHT22;2107;52.306;10.484;2023-03-01T13:19:59;10.20;64.10
4187;DHT22;2107;52.306;10.484;2023-03-01T13:22:29;9.90;63.30
4187;DHT22;2107;52.306;10.484;2023-03-01T13:25:02;9.80;62.90
4187;DHT22;2107;52.306;10.484;2023-03-01T13:27:38;8.80;64.50
4187;DHT22;2107;52.306;10.484;2023-03-01T13:30:40;8.80;64.60
4187;DHT22;2107;52.306;10.484;2023-03-01T13:36:48;8.20;66.00
4187;DHT22;2107;52.306;10.484;2023-03-01T13:39:29;8.20;66.10
4187;DHT22;2107;52.306;10.484;2023-03-01T13:41:59;8.20;65.50
4187;DHT22;2107;52.306;10.484;2023-03-01T13:44:30;8.80;67.00
4187;DHT22;2107;52.306;10.484;2023-03-01T13:47:02;9.30;65.70
4187;DHT22;2107;52.306;10.484;2023-03-01T13:49:36;9.60;63.80
4187;DHT22;2107;52.306;10.484;2023-03-01T13:52:30;10.10;63.30
4187;DHT22;2107;52.306;10.484;2023-03-01T13:54:59;10.30;61.70
4187;DHT22;2107;52.306;10.484;2023-03-01T13:57:32;10.00;61.10
4187;DHT22;2107;52.306;10.484;2023-03-01T14:00:01;10.40;62.20
4187;DHT22;2107;52.306;10.484;2023-03-01T14:02:28;10.20;60.00
4187;DHT22;2107;52.306;10.484;2023-03-01T14:04:56;10.30;59.90
4187;DHT22;2107;52.306;10.484;2023-03-01T14:07:26;10.80;60.50
4187;DHT22;2107;52.306;10.484;2023-03-01T14:09:56;10.80;60.60
4187;DHT22;2107;52.306;10.484;2023-03-01T14:12:37;10.70;59.10
4187;DHT22;2107;52.306;10.484;2023-03-01T14:15:13;11.70;58.60
4187;DHT22;2107;52.306;10.484;2023-03-01T14:18:04;11.60;58.30
4187;DHT22;2107;52.306;10.484;2023-03-01T14:20:38;11.10;56.80
4187;DHT22;2107;52.306;10.484;2023-03-01T14:23:12;11.80;57.60
4187;DHT22;2107;52.306;10.484;2023-03-01T14:25:46;11.20;57.20
4187;DHT22;2107;52.306;10.484;2023-03-01T14:28:17;10.80;56.30
4187;DHT22;2107;52.306;10.484;2023-03-01T14:30:45;12.20;56.90
4187;DHT22;2107;52.306;10.484;2023-03-01T14:33:22;13.20;54.70
4187;DHT22;2107;52.306;10.484;2023-03-01T14:35:58;13.70;53.00
4187;DHT22;2107;52.306;10.484;2023-03-01T14:38:33;13.90;53.30
4187;DHT22;2107;52.306;10.484;2023-03-01T14:41:02;13.00;49.60
4187;DHT22;2107;52.306;10.484;2023-03-01T14:43:30;12.20;50.80
4187;DHT22;2107;52.306;10.484;2023-03-01T14:45:57;12.50;50.70
4187;DHT22;2107;52.306;10.484;2023-03-01T14:48:25;13.30;50.40
4187;DHT22;2107;52.306;10.484;2023-03-01T14:50:53;13.50;49.60
4187;DHT22;2107;52.306;10.484;2023-03-01T14:53:23;12.70;49.00
4187;DHT22;2107;52.306;10.484;2023-03-01T14:55:54;12.70;48.70
4187;DHT22;2107;52.306;10.484;2023-03-01T14:58:23;13.30;48.70
4187;DHT22;2107;52.306;10.484;2023-03-01T15:00:52;11.70;48.80
4187;DHT22;2107;52.306;10.484;2023-03-01T15:03:25;10.10;51.10
4187;DHT22;2107;52.306;10.484;2023-03-01T15:05:52;9.10;53.50
4187;DHT22;2107;52.306;10.484;2023-03-01T15:08:22;7.60;54.70
4187;DHT22;2107;52.306;10.484;2023-03-01T15:10:59;7.60;56.00
4187;DHT22;2107;52.306;10.484;2023-03-01T15:13:30;7.20;57.00
4187;DHT22;2107;52.306;10.484;2023-03-01T15:16:04;7.30;58.70
4187;DHT22;2107;52.306;10.484;2023-03-01T15:18:32;7.10;58.70
4187;DHT22;2107;52.306;10.484;2023-03-01T15:21:07;7.00;59.60
4187;DHT22;2107;52.306;10.484;2023-03-01T15:23:36;6.80;60.40
4187;DHT22;2107;52.306;10.484;2023-03-01T15:26:06;6.80;62.00
4187;DHT22;2107;52.306;10.484;2023-03-01T15:28:35;6.70;61.90
4187;DHT22;2107;52.306;10.484;2023-03-01T15:31:13;6.60;61.70
4187;DHT22;2107;52.306;10.484;2023-03-01T15:33:44;6.60;62.20
4187;DHT22;2107;52.306;10.484;2023-03-01T15:36:36;6.60;63.10
4187;DHT22;2107;52.306;10.484;2023-03-01T15:39:05;6.50;63.10
4187;DHT22;2107;52.306;10.484;2023-03-01T15:41:46;6.50;63.70
4187;DHT22;2107;52.306;10.484;2023-03-01T15:44:24;6.50;64.30
4187;DHT22;2107;52.306;10.484;2023-03-01T15:46:51;6.40;64.90
4187;DHT22;2107;52.306;10.484;2023-03-01T15:49:29;6.40;65.00
4187;DHT22;2107;52.306;10.484;2023-03-01T15:51:58;6.40;65.40
4187;DHT22;2107;52.306;10.484;2023-03-01T15:54:26;6.40;65.50
4187;DHT22;2107;52.306;10.484;2023-03-01T15:56:55;6.50;66.70
4187;DHT22;2107;52.306;10.484;2023-03-01T15:59:22;6.40;66.30
4187;DHT22;2107;52.306;10.484;2023-03-01T16:01:49;6.30;67.20
4187;DHT22;2107;52.306;10.484;2023-03-01T16:04:18;6.30;66.50
4187;DHT22;2107;52.306;10.484;2023-03-01T16:06:48;6.20;65.50
4187;DHT22;2107;52.306;10.484;2023-03-01T16:09:20;6.10;65.90
4187;DHT22;2107;52.306;10.484;2023-03-01T16:11:48;6.10;66.20
4187;DHT22;2107;52.306;10.484;2023-03-01T16:14:16;6.00;66.20
4187;DHT22;2107;52.306;10.484;2023-03-01T16:16:44;6.00;67.00
4187;DHT22;2107;52.306;10.484;2023-03-01T16:19:11;6.00;68.30
4187;DHT22;2107;52.306;10.484;2023-03-01T16:21:38;5.90;68.80
4187;DHT22;2107;52.306;10.484;2023-03-01T16:24:06;5.80;68.60